Time;durP1;ratioP1;P1;durP2;ratioP2;P2;SDS_P1;SDS_P2;PMS_P1;PMS_P2;Temp;Humidity;BMP_temperature;BMP_pressure;BME280_temperature;BME280_humidity;BME280_pressure;Samples;Min_cycle;Max_cycle;Signal;HPM_P1;HPM_P2
2023/05/09 00:00:22;;;;;;;1.60;0.85;;;;;;;;;;4986208;28;20058;-64
2023/05/09 00:02:54;;;;;;;3.83;0.70;;;;;;;;;;4930609;28;20055;-64
2023/05/09 00:05:25;;;;;;;1.27;0.60;;;;;;;;;;4923152;28;20051;-64
2023/05/09 00:07:55;;;;;;;1.00;0.57;;;;;;;;;;4930526;28;20058;-64
2023/05/09 00:10:27;;;;;;;0.80;0.60;;;;;;;;;;4913379;28;20051;-64
2023/05/09 00:12:59;;;;;;;1.75;0.50;;;;;;;;;;4954464;28;20069;-63
2023/05/09 00:15:31;;;;;;;1.50;0.60;;;;;;;;;;4947617;28;20046;-63
2023/05/09 00:18:01;;;;;;;1.13;0.70;;;;;;;;;;4980821;28;20053;-63
2023/05/09 00:20:32;;;;;;;1.38;0.70;;;;;;;;;;4982440;28;20050;-64
2023/05/09 00:23:04;;;;;;;1.23;0.70;;;;;;;;;;4974848;28;20061;-64
2023/05/09 00:25:34;;;;;;;1.50;0.70;;;;;;;;;;4940502;28;20476;-64
2023/05/09 00:28:05;;;;;;;1.20;0.68;;;;;;;;;;4972099;28;20388;-63
2023/05/09 00:30:37;;;;;;;1.80;0.82;;;;;;;;;;4940118;28;20062;-64
2023/05/09 00:33:08;;;;;;;2.47;0.73;;;;;;;;;;4939808;28;20058;-63
2023/05/09 00:35:40;;;;;;;1.02;0.63;;;;;;;;;;4925583;28;20046;-64
2023/05/09 00:38:12;;;;;;;2.08;0.60;;;;;;;;;;4920497;29;20063;-63
2023/05/09 00:41:02;;;;;;;1.33;0.60;;;;;;;;;;4952174;29;20158;-63
2023/05/09 00:43:33;;;;;;;3.80;0.70;;;;;;;;;;4914211;29;20063;-63
2023/05/09 00:46:05;;;;;;;1.40;0.70;;;;;;;;;;4879806;29;20053;-63
2023/05/09 00:48:37;;;;;;;4.43;0.73;;;;;;;;;;4856944;29;20557;-64
2023/05/09 00:51:09;;;;;;;5.15;0.80;;;;;;;;;;4814088;29;20068;-63
2023/05/09 00:53:40;;;;;;;2.05;0.80;;;;;;;;;;4857987;29;20057;-63
2023/05/09 00:56:11;;;;;;;2.97;0.82;;;;;;;;;;4857949;29;20062;-63
2023/05/09 00:58:41;;;;;;;4.20;0.68;;;;;;;;;;4858095;29;20057;-63
2023/05/09 01:01:13;;;;;;;2.30;0.80;;;;;;;;;;4858124;29;20418;-63
2023/05/09 01:03:43;;;;;;;1.70;0.63;;;;;;;;;;4857821;29;20069;-63
2023/05/09 01:06:30;;;;;;;2.42;0.60;;;;;;;;;;4827145;29;20180;-63
2023/05/09 01:09:24;;;;;;;1.90;0.65;;;;;;;;;;4873076;29;20053;-63
2023/05/09 01:12:18;;;;;;;1.20;0.60;;;;;;;;;;4872281;29;20060;-63
2023/05/09 01:15:24;;;;;;;0.82;0.50;;;;;;;;;;4874078;29;20394;-63
2023/05/09 01:18:00;;;;;;;1.45;0.68;;;;;;;;;;4833613;29;20070;-63
2023/05/09 01:20:44;;;;;;;1.55;0.93;;;;;;;;;;4791539;29;20518;-64
2023/05/09 01:23:45;;;;;;;3.50;0.40;;;;;;;;;;4823759;29;20502;-63
2023/05/09 01:26:46;;;;;;;1.13;0.40;;;;;;;;;;4854100;29;20057;-63
2023/05/09 01:29:45;;;;;;;1.42;0.52;;;;;;;;;;4876101;29;20053;-64
2023/05/09 01:32:23;;;;;;;1.25;0.52;;;;;;;;;;4871388;29;20056;-63
2023/05/09 01:34:58;;;;;;;4.50;0.88;;;;;;;;;;4881934;29;20500;-63
2023/05/09 01:37:33;;;;;;;1.20;0.50;;;;;;;;;;4913679;29;20048;-63
2023/05/09 01:40:13;;;;;;;3.28;0.50;;;;;;;;;;4896345;29;20063;-62
2023/05/09 01:42:54;;;;;;;1.00;0.60;;;;;;;;;;4879178;29;20053;-63
2023/05/09 01:45:26;;;;;;;1.52;0.60;;;;;;;;;;4863813;29;20053;-63
2023/05/09 01:47:58;;;;;;;3.85;0.50;;;;;;;;;;4827443;29;20060;-63
2023/05/09 01:50:29;;;;;;;2.20;0.65;;;;;;;;;;4838570;29;20180;-63
2023/05/09 01:53:02;;;;;;;4.13;0.57;;;;;;;;;;4838885;29;20066;-63
2023/05/09 01:55:35;;;;;;;7.15;0.65;;;;;;;;;;4872134;29;20438;-63
2023/05/09 01:58:07;;;;;;;2.65;0.50;;;;;;;;;;4894144;29;20565;-63
2023/05/09 02:00:38;;;;;;;0.75;0.50;;;;;;;;;;4863036;29;20053;-63
2023/05/09 02:03:09;;;;;;;1.27;0.70;;;;;;;;;;4894356;29;20067;-63
2023/05/09 02:05:41;;;;;;;3.15;0.88;;;;;;;;;;4778407;29;20070;-63
2023/05/09 02:08:13;;;;;;;1.52;0.70;;;;;;;;;;4856772;29;20490;-63
2023/05/09 02:10:45;;;;;;;0.80;0.47;;;;;;;;;;4874274;29;20314;-63
2023/05/09 02:13:15;;;;;;;2.38;0.60;;;;;;;;;;4875476;29;20053;-64
2023/05/09 02:15:46;;;;;;;1.85;0.70;;;;;;;;;;4856884;29;20053;-63
2023/05/09 02:18:17;;;;;;;2.47;1.13;;;;;;;;;;4825144;29;20054;-63
2023/05/09 02:20:47;;;;;;;3.03;0.60;;;;;;;;;;4835119;29;20058;-63
2023/05/09 02:23:19;;;;;;;2.03;0.60;;;;;;;;;;4820171;29;20051;-63
2023/05/09 02:25:53;;;;;;;1.00;0.60;;;;;;;;;;4784086;29;20055;-63
2023/05/09 02:28:25;;;;;;;11.57;0.75;;;;;;;;;;4794639;29;20069;-63
2023/05/09 02:30:58;;;;;;;1.85;0.55;;;;;;;;;;4783679;29;20055;-63
2023/05/09 02:33:30;;;;;;;4.45;0.73;;;;;;;;;;4805186;29;20046;-63
2023/05/09 02:36:03;;;;;;;0.85;0.55;;;;;;;;;;4819885;29;20073;-63
2023/05/09 02:38:35;;;;;;;6.10;0.80;;;;;;;;;;4796814;29;20546;-63
2023/05/09 02:41:05;;;;;;;0.82;0.50;;;;;;;;;;4841423;29;20054;-63
2023/05/09 02:43:35;;;;;;;1.50;0.80;;;;;;;;;;4845395;29;20125;-63
2023/05/09 02:46:07;;;;;;;1.73;0.73;;;;;;;;;;4867687;29;20520;-63
2023/05/09 02:48:38;;;;;;;1.08;0.50;;;;;;;;;;4845439;29;20514;-63
2023/05/09 02:51:08;;;;;;;1.75;0.80;;;;;;;;;;4853469;29;20450;-63
2023/05/09 02:53:38;;;;;;;3.35;0.63;;;;;;;;;;4814012;29;20065;-63
2023/05/09 02:56:09;;;;;;;1.35;0.60;;;;;;;;;;4853284;29;20069;-63
2023/05/09 02:58:39;;;;;;;2.00;0.93;;;;;;;;;;4838233;29;20069;-63
2023/05/09 03:01:10;;;;;;;1.52;0.70;;;;;;;;;;4833751;29;20061;-63
2023/05/09 03:03:40;;;;;;;3.55;0.70;;;;;;;;;;4896420;29;20055;-63
2023/05/09 03:06:11;;;;;;;2.00;0.73;;;;;;;;;;4912596;29;20055;-63
2023/05/09 03:08:41;;;;;;;4.03;0.55;;;;;;;;;;4922837;29;20557;-63
2023/05/09 03:11:12;;;;;;;1.77;0.88;;;;;;;;;;4887999;29;20060;-64
2023/05/09 03:13:43;;;;;;;5.60;0.85;;;;;;;;;;4878403;29;20053;-63
2023/05/09 03:16:17;;;;;;;5.35;0.90;;;;;;;;;;4878350;29;20065;-63
2023/05/09 03:18:47;;;;;;;2.78;1.05;;;;;;;;;;4878233;29;20068;-63
2023/05/09 03:21:17;;;;;;;2.13;0.90;;;;;;;;;;4878001;29;20455;-62
2023/05/09 03:23:48;;;;;;;10.88;1.05;;;;;;;;;;4869086;29;20710;-62
2023/05/09 03:26:18;;;;;;;2.63;0.90;;;;;;;;;;4845289;29;20579;-63
2023/05/09 03:28:49;;;;;;;6.15;1.17;;;;;;;;;;4877901;29;20063;-63
2023/05/09 03:31:20;;;;;;;5.15;1.02;;;;;;;;;;4896616;29;20486;-63
2023/05/09 03:33:50;;;;;;;5.43;0.70;;;;;;;;;;4896857;29;20060;-63
2023/05/09 03:36:22;;;;;;;3.92;1.05;;;;;;;;;;4856130;29;20057;-63
2023/05/09 03:38:52;;;;;;;5.25;0.90;;;;;;;;;;4877844;29;20456;-63
2023/05/09 03:41:23;;;;;;;6.13;0.90;;;;;;;;;;4849472;29;20071;-62
2023/05/09 03:43:53;;;;;;;3.45;1.10;;;;;;;;;;4859134;29;20060;-63
2023/05/09 03:46:23;;;;;;;1.48;0.80;;;;;;;;;;4859076;29;20181;-63
2023/05/09 03:48:53;;;;;;;5.15;1.13;;;;;;;;;;4877687;29;20060;-63
2023/05/09 03:51:25;;;;;;;3.05;1.27;;;;;;;;;;4834608;29;20054;-63
2023/05/09 03:53:57;;;;;;;2.83;1.50;;;;;;;;;;4855104;29;20591;-62
2023/05/09 03:56:27;;;;;;;4.13;0.95;;;;;;;;;;4812300;29;20062;-62
2023/05/09 03:58:59;;;;;;;8.07;1.13;;;;;;;;;;4822062;29;20050;-63
2023/05/09 04:01:30;;;;;;;3.88;0.70;;;;;;;;;;4820570;29;20050;-63
2023/05/09 04:04:02;;;;;;;2.97;0.93;;;;;;;;;;4821881;29;20051;-63
2023/05/09 04:06:36;;;;;;;2.17;0.73;;;;;;;;;;4838016;29;20057;-62
2023/05/09 04:09:09;;;;;;;4.10;1.05;;;;;;;;;;4821731;29;20080;-63
2023/05/09 04:11:41;;;;;;;6.28;0.90;;;;;;;;;;4803560;29;20051;-63
2023/05/09 04:14:13;;;;;;;2.88;0.90;;;;;;;;;;4840149;29;20462;-62
2023/05/09 04:16:43;;;;;;;7.70;1.40;;;;;;;;;;4819484;29;20073;-63
2023/05/09 04:19:14;;;;;;;3.42;1.20;;;;;;;;;;4793511;29;20460;-63
2023/05/09 04:21:45;;;;;;;3.88;1.20;;;;;;;;;;4800470;29;20493;-63
2023/05/09 04:24:15;;;;;;;2.85;1.00;;;;;;;;;;4803732;29;20070;-63
2023/05/09 04:26:47;;;;;;;;;;;;;;;;;;4792363;29;20447;-63
2023/05/09 04:29:21;;;;;;;7.50;0.90;;;;;;;;;;4803276;29;20382;-63
2023/05/09 04:31:54;;;;;;;6.53;1.45;;;;;;;;;;4774232;30;20175;-62
2023/05/09 04:34:28;;;;;;;6.20;0.90;;;;;;;;;;4781073;29;20066;-63
2023/05/09 04:37:03;;;;;;;1.95;0.98;;;;;;;;;;4781589;29;20070;-63
2023/05/09 04:39:33;;;;;;;2.47;0.90;;;;;;;;;;4767643;30;20521;-63
2023/05/09 04:42:12;;;;;;;2.83;1.40;;;;;;;;;;4785271;30;20098;-63
2023/05/09 04:44:42;;;;;;;2.50;1.10;;;;;;;;;;4761194;30;20063;-63
2023/05/09 04:47:14;;;;;;;3.95;1.20;;;;;;;;;;4778954;30;20055;-63
2023/05/09 04:49:44;;;;;;;2.00;0.88;;;;;;;;;;4773688;30;20472;-63
2023/05/09 04:52:15;;;;;;;3.35;1.05;;;;;;;;;;4760662;30;20047;-63
2023/05/09 04:54:45;;;;;;;3.92;0.70;;;;;;;;;;4752966;30;20062;-63
2023/05/09 04:57:18;;;;;;;4.03;1.30;;;;;;;;;;4749225;30;20075;-63
2023/05/09 04:59:54;;;;;;;7.68;1.45;;;;;;;;;;4749199;30;20472;-63
2023/05/09 05:02:24;;;;;;;5.72;1.70;;;;;;;;;;4761455;30;20059;-63
2023/05/09 05:04:55;;;;;;;6.45;2.30;;;;;;;;;;4754704;30;20067;-63
2023/05/09 05:07:45;;;;;;;23.13;3.20;;;;;;;;;;4749445;30;20536;-63
2023/05/09 05:10:20;;;;;;;12.52;3.42;;;;;;;;;;4748924;30;20079;-63
2023/05/09 05:12:56;;;;;;;16.45;4.57;;;;;;;;;;4766933;30;20051;-63
2023/05/09 05:15:26;;;;;;;19.70;5.28;;;;;;;;;;4766696;30;20056;-63
2023/05/09 05:17:58;;;;;;;16.80;4.88;;;;;;;;;;4766845;30;20055;-63
2023/05/09 05:20:33;;;;;;;16.50;4.68;;;;;;;;;;4752881;30;20052;-63
2023/05/09 05:23:03;;;;;;;19.13;5.60;;;;;;;;;;4749028;30;20060;-63
2023/05/09 05:25:33;;;;;;;26.80;6.85;;;;;;;;;;4750151;30;20178;-63
2023/05/09 05:28:04;;;;;;;20.95;5.40;;;;;;;;;;4731246;30;20414;-63
2023/05/09 05:30:34;;;;;;;18.35;5.40;;;;;;;;;;4732392;30;20064;-63
2023/05/09 05:33:04;;;;;;;18.13;6.18;;;;;;;;;;4728318;30;20065;-63
2023/05/09 05:35:34;;;;;;;18.00;5.60;;;;;;;;;;4735523;30;20052;-63
2023/05/09 05:38:04;;;;;;;14.93;4.75;;;;;;;;;;4748424;30;20495;-63
2023/05/09 05:40:35;;;;;;;18.10;5.20;;;;;;;;;;4701553;30;20061;-63
2023/05/09 05:43:07;;;;;;;;;;;;;;;;;;4731633;30;20059;-63
2023/05/09 05:45:38;;;;;;;13.50;3.85;;;;;;;;;;4731013;30;19933;-63
2023/05/09 05:48:15;;;;;;;7.82;2.95;;;;;;;;;;4738118;30;20056;-63
2023/05/09 05:50:46;;;;;;;12.90;2.42;;;;;;;;;;4748451;30;20438;-62
2023/05/09 05:53:19;;;;;;;8.23;2.45;;;;;;;;;;4784160;29;20071;-63
2023/05/09 05:55:51;;;;;;;6.15;2.28;;;;;;;;;;4784130;29;20051;-63
2023/05/09 05:58:21;;;;;;;7.28;2.42;;;;;;;;;;4793750;29;20043;-63
2023/05/09 06:00:52;;;;;;;17.58;2.92;;;;;;;;;;4820034;29;20077;-63
2023/05/09 06:03:23;;;;;;;7.47;2.38;;;;;;;;;;4801967;29;20055;-63
2023/05/09 06:06:00;;;;;;;4.50;1.42;;;;;;;;;;4780388;29;20062;-63
2023/05/09 06:08:30;;;;;;;6.90;2.00;;;;;;;;;;4802117;29;20062;-63
2023/05/09 06:11:01;;;;;;;3.58;1.33;;;;;;;;;;4819972;29;20058;-63
2023/05/09 06:13:32;;;;;;;4.32;1.42;;;;;;;;;;4750518;30;20055;-64
2023/05/09 06:16:05;;;;;;;5.60;1.02;;;;;;;;;;4783791;29;20070;-63
2023/05/09 06:18:51;;;;;;;4.28;1.20;;;;;;;;;;4762784;29;20047;-63
2023/05/09 06:21:24;;;;;;;5.00;1.10;;;;;;;;;;4785664;29;20055;-63
2023/05/09 06:23:54;;;;;;;6.30;1.90;;;;;;;;;;4801796;29;20062;-63
2023/05/09 06:26:27;;;;;;;5.22;1.75;;;;;;;;;;4801833;29;20066;-63
2023/05/09 06:28:57;;;;;;;7.40;2.10;;;;;;;;;;4814734;29;20050;-63
2023/05/09 06:31:27;;;;;;;8.05;1.88;;;;;;;;;;4792679;29;20055;-63
2023/05/09 06:33:57;;;;;;;8.65;1.90;;;;;;;;;;4810024;29;20173;-62
2023/05/09 06:36:27;;;;;;;3.75;1.45;;;;;;;;;;4805551;29;20415;-63
2023/05/09 06:38:58;;;;;;;3.88;1.40;;;;;;;;;;4875501;29;20053;-63
2023/05/09 06:41:29;;;;;;;3.65;1.27;;;;;;;;;;4893614;29;20060;-63
2023/05/09 06:44:01;;;;;;;2.08;1.10;;;;;;;;;;4893910;29;20053;-63
2023/05/09 06:46:31;;;;;;;2.10;1.10;;;;;;;;;;4879822;29;20063;-63
2023/05/09 06:49:01;;;;;;;4.10;1.40;;;;;;;;;;4887261;29;20061;-63
2023/05/09 06:51:32;;;;;;;3.55;1.80;;;;;;;;;;4921341;29;20063;-63
2023/05/09 06:54:02;;;;;;;4.03;1.58;;;;;;;;;;4935656;29;20055;-63
2023/05/09 06:56:32;;;;;;;3.30;1.63;;;;;;;;;;4935459;29;20064;-64
2023/05/09 06:59:02;;;;;;;2.92;1.45;;;;;;;;;;4935621;29;20055;-63
2023/05/09 07:01:32;;;;;;;3.20;1.33;;;;;;;;;;4954469;28;20062;-63
2023/05/09 07:04:02;;;;;;;4.55;1.40;;;;;;;;;;4974164;28;20050;-63
2023/05/09 07:06:32;;;;;;;3.85;1.40;;;;;;;;;;4973729;28;20050;-63
2023/05/09 07:09:03;;;;;;;5.70;1.45;;;;;;;;;;4973697;28;20055;-63
2023/05/09 07:11:36;;;;;;;2.40;1.25;;;;;;;;;;4925888;28;20059;-63
2023/05/09 07:14:07;;;;;;;5.60;1.92;;;;;;;;;;4942363;28;20561;-63
2023/05/09 07:16:37;;;;;;;5.60;1.70;;;;;;;;;;4994563;28;20058;-63
2023/05/09 07:19:07;;;;;;;5.72;2.05;;;;;;;;;;5014923;28;20065;-63
2023/05/09 07:21:37;;;;;;;17.85;2.30;;;;;;;;;;4992728;28;20046;-63
2023/05/09 07:24:07;;;;;;;9.27;2.20;;;;;;;;;;4960390;28;20062;-63
2023/05/09 07:26:39;;;;;;;9.15;2.33;;;;;;;;;;4992903;28;20445;-63
2023/05/09 07:29:09;;;;;;;7.43;2.70;;;;;;;;;;4992958;28;20158;-63
2023/05/09 07:31:39;;;;;;;10.20;2.85;;;;;;;;;;4960293;28;20089;-63
2023/05/09 07:34:09;;;;;;;9.13;2.95;;;;;;;;;;4992752;28;20066;-63
2023/05/09 07:36:39;;;;;;;12.15;2.67;;;;;;;;;;4976348;28;20050;-63
2023/05/09 07:39:09;;;;;;;15.13;3.05;;;;;;;;;;4976027;28;20061;-63
2023/05/09 07:41:39;;;;;;;10.65;3.25;;;;;;;;;;4976019;28;20572;-63
2023/05/09 07:44:10;;;;;;;13.65;2.63;;;;;;;;;;4960084;28;20061;-62
2023/05/09 07:46:40;;;;;;;12.55;2.97;;;;;;;;;;4972803;28;20418;-63
2023/05/09 07:49:10;;;;;;;14.70;2.78;;;;;;;;;;4973099;28;20059;-63
2023/05/09 07:51:41;;;;;;;11.10;2.60;;;;;;;;;;4972776;28;20058;-63
2023/05/09 07:54:11;;;;;;;13.50;2.45;;;;;;;;;;4941128;28;20058;-63
2023/05/09 07:56:41;;;;;;;10.60;2.42;;;;;;;;;;4956243;28;20565;-63
2023/05/09 07:59:12;;;;;;;13.23;3.72;;;;;;;;;;4957113;28;20051;-63
2023/05/09 08:01:42;;;;;;;16.20;2.53;;;;;;;;;;4972839;28;20052;-63
2023/05/09 08:04:12;;;;;;;17.15;3.08;;;;;;;;;;4972711;28;20066;-63
2023/05/09 08:06:42;;;;;;;9.00;2.30;;;;;;;;;;4972616;28;20066;-63
2023/05/09 08:09:13;;;;;;;8.75;2.67;;;;;;;;;;4972831;28;20487;-63
2023/05/09 08:11:43;;;;;;;9.70;2.25;;;;;;;;;;4893876;28;20490;-63
2023/05/09 08:14:13;;;;;;;16.17;2.83;;;;;;;;;;4972551;28;20065;-63
2023/05/09 08:16:43;;;;;;;11.23;3.78;;;;;;;;;;4972651;28;20055;-63
2023/05/09 08:19:13;;;;;;;11.98;2.38;;;;;;;;;;4972387;28;20046;-63
2023/05/09 08:21:44;;;;;;;7.05;2.03;;;;;;;;;;4972578;28;20050;-63
2023/05/09 08:24:14;;;;;;;5.50;1.88;;;;;;;;;;4991835;28;20058;-63
2023/05/09 08:26:44;;;;;;;6.40;1.83;;;;;;;;;;4947785;28;20058;-62
2023/05/09 08:29:16;;;;;;;6.38;1.95;;;;;;;;;;5013658;28;20418;-62
2023/05/09 08:31:46;;;;;;;5.95;1.83;;;;;;;;;;4995145;28;20046;-63
2023/05/09 08:34:16;;;;;;;5.43;1.60;;;;;;;;;;4995032;28;20053;-62
2023/05/09 08:36:47;;;;;;;8.75;1.50;;;;;;;;;;5013705;28;20064;-63
2023/05/09 08:39:18;;;;;;;6.07;1.73;;;;;;;;;;5013430;28;20046;-63
2023/05/09 08:41:48;;;;;;;10.05;2.28;;;;;;;;;;4964352;28;20509;-63
2023/05/09 08:44:22;;;;;;;16.83;2.70;;;;;;;;;;4994954;28;20061;-62
2023/05/09 08:46:57;;;;;;;18.13;3.88;;;;;;;;;;4978786;28;20050;-63
2023/05/09 08:49:28;;;;;;;17.30;3.47;;;;;;;;;;5013328;28;20042;-63
2023/05/09 08:51:59;;;;;;;13.85;3.33;;;;;;;;;;4994702;28;20425;-63
2023/05/09 08:54:30;;;;;;;13.52;4.55;;;;;;;;;;5013172;28;20053;-63
2023/05/09 08:57:00;;;;;;;12.77;3.25;;;;;;;;;;5010522;28;20054;-63
2023/05/09 08:59:33;;;;;;;15.00;3.38;;;;;;;;;;5010580;28;20529;-63
2023/05/09 09:02:06;;;;;;;13.18;2.75;;;;;;;;;;4977848;28;20058;-63
2023/05/09 09:04:36;;;;;;;10.45;2.75;;;;;;;;;;4971089;28;20051;-63
2023/05/09 09:07:08;;;;;;;18.15;2.88;;;;;;;;;;4971685;28;20051;-63
2023/05/09 09:09:45;;;;;;;7.20;2.25;;;;;;;;;;4971054;28;20423;-63
2023/05/09 09:12:17;;;;;;;13.63;2.67;;;;;;;;;;4971525;28;20053;-63
2023/05/09 09:14:51;;;;;;;12.93;2.60;;;;;;;;;;4971412;28;20050;-63
2023/05/09 09:17:26;;;;;;;7.22;2.38;;;;;;;;;;4939372;28;20066;-63
2023/05/09 09:20:00;;;;;;;8.38;2.80;;;;;;;;;;4940442;28;20054;-63
2023/05/09 09:22:33;;;;;;;9.15;2.72;;;;;;;;;;4893036;28;20051;-65
2023/05/09 09:25:04;;;;;;;11.75;2.72;;;;;;;;;;4971288;28;20054;-63
2023/05/09 09:27:34;;;;;;;16.55;3.92;;;;;;;;;;4954922;28;20054;-63
2023/05/09 09:30:09;;;;;;;23.67;4.30;;;;;;;;;;4954842;28;20051;-63
2023/05/09 09:32:39;;;;;;;10.55;2.90;;;;;;;;;;4923284;28;20153;-63
2023/05/09 09:35:11;;;;;;;8.75;2.83;;;;;;;;;;4971147;28;20066;-63
2023/05/09 09:37:42;;;;;;;7.57;2.70;;;;;;;;;;4971090;28;20311;-63
2023/05/09 09:40:13;;;;;;;7.32;2.45;;;;;;;;;;4971177;28;20075;-65
2023/05/09 09:42:46;;;;;;;14.70;2.90;;;;;;;;;;4964273;28;20058;-63
2023/05/09 09:45:18;;;;;;;9.38;3.22;;;;;;;;;;4990781;28;20054;-63
2023/05/09 09:47:49;;;;;;;10.07;2.70;;;;;;;;;;4974562;28;20058;-63
2023/05/09 09:50:22;;;;;;;9.13;3.05;;;;;;;;;;4992623;28;20043;-63
2023/05/09 09:52:56;;;;;;;9.85;3.28;;;;;;;;;;4990192;28;20050;-63
2023/05/09 09:55:28;;;;;;;10.15;3.15;;;;;;;;;;5006458;28;20061;-63
2023/05/09 09:58:17;;;;;;;11.85;3.60;;;;;;;;;;4973948;28;20050;-63
2023/05/09 10:01:10;;;;;;;10.45;3.53;;;;;;;;;;4992383;28;20518;-63
2023/05/09 10:03:43;;;;;;;5.32;2.60;;;;;;;;;;4942379;28;20058;-62
2023/05/09 10:06:15;;;;;;;7.30;2.58;;;;;;;;;;4990317;28;20077;-62
2023/05/09 10:08:47;;;;;;;7.05;2.53;;;;;;;;;;4992376;28;20043;-62
2023/05/09 10:11:17;;;;;;;5.97;2.10;;;;;;;;;;4990156;28;20050;-62
2023/05/09 10:13:48;;;;;;;8.10;2.58;;;;;;;;;;4992025;28;20394;-62
2023/05/09 10:16:18;;;;;;;5.60;2.70;;;;;;;;;;4974207;28;20061;-62
2023/05/09 10:19:05;;;;;;;5.65;2.17;;;;;;;;;;4992304;28;20058;-62
2023/05/09 10:21:36;;;;;;;5.57;2.33;;;;;;;;;;4995523;28;20046;-62
2023/05/09 10:24:08;;;;;;;5.60;2.50;;;;;;;;;;4978468;28;20376;-62
2023/05/09 10:26:44;;;;;;;6.07;2.47;;;;;;;;;;4995961;28;20062;-63
2023/05/09 10:29:21;;;;;;;58.83;25.95;;;;;;;;;;4996335;28;20046;-62
2023/05/09 10:31:56;;;;;;;5.18;2.47;;;;;;;;;;4995985;28;20046;-63
2023/05/09 10:34:32;;;;;;;11.00;3.17;;;;;;;;;;4995923;28;20393;-63
2023/05/09 10:37:03;;;;;;;7.65;3.80;;;;;;;;;;4977927;28;20054;-63
2023/05/09 10:39:34;;;;;;;5.93;3.05;;;;;;;;;;4993876;28;20062;-63
2023/05/09 10:42:06;;;;;;;9.30;3.63;;;;;;;;;;5009001;28;20418;-62
2023/05/09 10:44:38;;;;;;;10.25;4.65;;;;;;;;;;4945602;28;20050;-63
2023/05/09 10:47:08;;;;;;;6.65;3.38;;;;;;;;;;4993411;28;20050;-63
2023/05/09 10:49:39;;;;;;;9.30;3.15;;;;;;;;;;4993665;28;20177;-63
2023/05/09 10:52:09;;;;;;;10.75;4.35;;;;;;;;;;4993358;28;20042;-63
2023/05/09 10:54:40;;;;;;;22.98;7.85;;;;;;;;;;4960777;28;20050;-63
2023/05/09 10:57:10;;;;;;;26.73;8.75;;;;;;;;;;4960685;28;20421;-62
2023/05/09 10:59:42;;;;;;;33.90;10.00;;;;;;;;;;4993221;28;20545;-63
2023/05/09 11:02:18;;;;;;;33.15;10.73;;;;;;;;;;4960898;28;20050;-63
2023/05/09 11:04:48;;;;;;;25.95;9.07;;;;;;;;;;4992842;28;20077;-63
2023/05/09 11:07:25;;;;;;;24.95;8.65;;;;;;;;;;4960583;28;20061;-63
2023/05/09 11:10:10;;;;;;;33.78;11.10;;;;;;;;;;4981158;28;20050;-62
2023/05/09 11:12:59;;;;;;;36.22;12.73;;;;;;;;;;5003369;28;20398;-63
2023/05/09 11:15:30;;;;;;;31.58;10.85;;;;;;;;;;4969123;28;20058;-63
2023/05/09 11:18:10;;;;;;;30.83;10.32;;;;;;;;;;4972937;28;20573;-63
2023/05/09 11:20:45;;;;;;;32.45;11.05;;;;;;;;;;4942999;28;20065;-63
2023/05/09 11:23:17;;;;;;;24.52;8.60;;;;;;;;;;4966920;28;20051;-63
2023/05/09 11:25:51;;;;;;;18.77;7.38;;;;;;;;;;4984111;28;20051;-63
2023/05/09 11:28:30;;;;;;;16.92;7.07;;;;;;;;;;4949999;28;20054;-63
2023/05/09 11:31:19;;;;;;;92.78;45.10;;;;;;;;;;4983079;28;20087;-63
2023/05/09 11:33:55;;;;;;;24.73;8.90;;;;;;;;;;4992261;28;20057;-63
2023/05/09 11:36:32;;;;;;;28.70;10.57;;;;;;;;;;4956888;28;20054;-63
2023/05/09 11:39:03;;;;;;;22.58;7.95;;;;;;;;;;4973006;28;20515;-62
2023/05/09 11:41:45;;;;;;;20.00;8.32;;;;;;;;;;4972955;28;20074;-63
2023/05/09 11:44:17;;;;;;;25.33;9.73;;;;;;;;;;4973122;28;20046;-63
2023/05/09 11:46:49;;;;;;;26.10;10.13;;;;;;;;;;4973105;28;20542;-63
2023/05/09 11:49:19;;;;;;;28.73;11.38;;;;;;;;;;4941951;28;20058;-63
2023/05/09 11:51:49;;;;;;;26.80;11.07;;;;;;;;;;4971783;28;20042;-63
2023/05/09 11:54:23;;;;;;;32.50;12.70;;;;;;;;;;4971737;28;20142;-67
2023/05/09 11:56:54;;;;;;;37.78;11.90;;;;;;;;;;4995328;28;20058;-64
2023/05/09 11:59:25;;;;;;;26.70;10.48;;;;;;;;;;5013099;28;20079;-63
2023/05/09 12:01:56;;;;;;;24.08;10.73;;;;;;;;;;5013152;28;20656;-63
2023/05/09 12:04:29;;;;;;;22.45;9.52;;;;;;;;;;5013113;28;20046;-61
2023/05/09 12:07:00;;;;;;;10.88;3.75;;;;;;;;;;5013064;28;20053;-63
2023/05/09 12:09:37;;;;;;;9.48;3.80;;;;;;;;;;5015766;28;20056;-62
2023/05/09 12:12:12;;;;;;;8.40;4.50;;;;;;;;;;5010700;28;20417;-63
2023/05/09 12:14:42;;;;;;;5.57;2.70;;;;;;;;;;5033167;28;20045;-63
2023/05/09 12:17:12;;;;;;;3.85;1.98;;;;;;;;;;4998677;28;20057;-62
2023/05/09 12:19:44;;;;;;;5.20;2.88;;;;;;;;;;5023999;28;20057;-63
2023/05/09 12:22:14;;;;;;;4.53;2.50;;;;;;;;;;4986050;28;20050;-63
2023/05/09 12:24:44;;;;;;;6.35;2.22;;;;;;;;;;5013427;28;20516;-63
2023/05/09 12:27:18;;;;;;;6.63;3.55;;;;;;;;;;4985176;28;20064;-62
2023/05/09 12:29:48;;;;;;;4.68;2.13;;;;;;;;;;4935359;28;20058;-63
2023/05/09 12:32:21;;;;;;;7.22;2.17;;;;;;;;;;4963105;28;20532;-63
2023/05/09 12:34:53;;;;;;;7.03;2.30;;;;;;;;;;5012983;28;20030;-63
2023/05/09 12:37:23;;;;;;;4.47;2.05;;;;;;;;;;5015863;28;20504;-63
2023/05/09 12:40:11;;;;;;;4.68;2.08;;;;;;;;;;4985210;28;20054;-63
2023/05/09 12:42:44;;;;;;;3.17;2.05;;;;;;;;;;4991299;28;20058;-64
2023/05/09 12:45:14;;;;;;;4.50;2.75;;;;;;;;;;4941833;28;20058;-63
2023/05/09 12:47:51;;;;;;;4.50;2.13;;;;;;;;;;4991008;28;20043;-63
2023/05/09 12:50:21;;;;;;;5.20;3.00;;;;;;;;;;4959563;28;20469;-63
2023/05/09 12:52:53;;;;;;;6.10;2.63;;;;;;;;;;4959005;28;20069;-63
2023/05/09 12:55:42;;;;;;;5.72;3.08;;;;;;;;;;4967685;28;20051;-63
2023/05/09 12:58:14;;;;;;;5.28;2.60;;;;;;;;;;4974883;28;20065;-63
2023/05/09 13:00:45;;;;;;;35.30;20.60;;;;;;;;;;4984337;28;20046;-63
2023/05/09 13:03:29;;;;;;;8.95;4.80;;;;;;;;;;4999604;28;20050;-63
2023/05/09 13:06:04;;;;;;;6.53;3.72;;;;;;;;;;5000263;28;20062;-64
2023/05/09 13:08:34;;;;;;;6.15;2.58;;;;;;;;;;4999375;28;20046;-63
2023/05/09 13:11:04;;;;;;;5.55;2.28;;;;;;;;;;4966353;28;20422;-63
2023/05/09 13:13:44;;;;;;;6.63;2.22;;;;;;;;;;4983447;28;20046;-63
2023/05/09 13:16:14;;;;;;;5.70;1.95;;;;;;;;;;4999078;28;20053;-64
2023/05/09 13:18:46;;;;;;;4.28;1.83;;;;;;;;;;5019768;28;20517;-63
2023/05/09 13:21:16;;;;;;;3.75;1.80;;;;;;;;;;5012539;28;20041;-64
2023/05/09 13:23:48;;;;;;;3.72;1.73;;;;;;;;;;5017246;28;20049;-63
2023/05/09 13:26:18;;;;;;;6.07;2.00;;;;;;;;;;4986319;28;20074;-63
2023/05/09 13:28:48;;;;;;;4.88;2.28;;;;;;;;;;5021949;28;20037;-63
2023/05/09 13:31:19;;;;;;;5.10;2.15;;;;;;;;;;4979674;28;20043;-63
2023/05/09 13:33:49;;;;;;;4.60;2.35;;;;;;;;;;4940603;28;20057;-64
2023/05/09 13:36:21;;;;;;;7.25;2.60;;;;;;;;;;4978864;28;20054;-63
2023/05/09 13:38:51;;;;;;;3.80;1.90;;;;;;;;;;4942168;29;20063;-63
2023/05/09 13:41:22;;;;;;;5.18;2.47;;;;;;;;;;4908088;29;20058;-63
2023/05/09 13:43:53;;;;;;;5.25;2.63;;;;;;;;;;4939389;29;20063;-64
2023/05/09 13:46:24;;;;;;;4.05;2.15;;;;;;;;;;4939946;29;20083;-63
2023/05/09 13:48:54;;;;;;;3.80;1.95;;;;;;;;;;4908133;29;20574;-63
2023/05/09 13:51:24;;;;;;;2.97;1.80;;;;;;;;;;4940056;29;20052;-64
2023/05/09 13:53:54;;;;;;;3.92;2.22;;;;;;;;;;4911506;29;20040;-63
2023/05/09 13:56:25;;;;;;;7.63;2.50;;;;;;;;;;4907348;29;20390;-63
2023/05/09 13:58:55;;;;;;;5.05;1.80;;;;;;;;;;4913092;29;20071;-63
2023/05/09 14:01:25;;;;;;;3.38;1.92;;;;;;;;;;4913294;29;20419;-63
2023/05/09 14:03:55;;;;;;;3.33;1.80;;;;;;;;;;4913207;29;20561;-63
2023/05/09 14:06:26;;;;;;;4.30;2.17;;;;;;;;;;4907339;29;20059;-63
2023/05/09 14:08:59;;;;;;;6.13;1.85;;;;;;;;;;4907054;29;20504;-64
2023/05/09 14:11:29;;;;;;;5.03;2.58;;;;;;;;;;4875447;29;20089;-64
2023/05/09 14:13:59;;;;;;;6.47;2.60;;;;;;;;;;4876664;29;20053;-64
2023/05/09 14:16:29;;;;;;;5.35;2.40;;;;;;;;;;4893791;29;20063;-63
2023/05/09 14:19:00;;;;;;;5.32;2.90;;;;;;;;;;4912947;29;20060;-63
2023/05/09 14:21:30;;;;;;;4.18;2.75;;;;;;;;;;4835492;29;20052;-64
2023/05/09 14:24:00;;;;;;;5.82;2.42;;;;;;;;;;4914569;29;20060;-64
2023/05/09 14:26:31;;;;;;;4.13;2.17;;;;;;;;;;4874789;29;20052;-63
2023/05/09 14:29:03;;;;;;;3.75;2.20;;;;;;;;;;4921772;29;20067;-63
2023/05/09 14:31:33;;;;;;;10.73;2.92;;;;;;;;;;4935715;28;20058;-62
2023/05/09 14:34:05;;;;;;;16.10;3.70;;;;;;;;;;4923467;28;20063;-63
2023/05/09 14:36:36;;;;;;;21.73;4.22;;;;;;;;;;4967958;28;20055;-63
2023/05/09 14:39:10;;;;;;;3.83;2.13;;;;;;;;;;4939031;28;20055;-62
2023/05/09 14:41:40;;;;;;;4.90;2.00;;;;;;;;;;4929593;28;20062;-62
2023/05/09 14:44:10;;;;;;;5.57;2.80;;;;;;;;;;4969846;28;20065;-62
2023/05/09 14:46:41;;;;;;;6.00;2.58;;;;;;;;;;4954601;28;20046;-62
2023/05/09 14:49:12;;;;;;;4.07;2.70;;;;;;;;;;4992047;28;20440;-62
2023/05/09 14:51:42;;;;;;;4.68;2.00;;;;;;;;;;5020511;28;20049;-62
2023/05/09 14:54:12;;;;;;;3.67;1.83;;;;;;;;;;5014022;28;20057;-63
2023/05/09 14:56:42;;;;;;;2.10;1.40;;;;;;;;;;5019753;28;20050;-62
2023/05/09 14:59:12;;;;;;;4.07;2.30;;;;;;;;;;5011151;28;20420;-63
2023/05/09 15:01:44;;;;;;;6.10;3.80;;;;;;;;;;5021549;28;20034;-62
2023/05/09 15:04:15;;;;;;;6.28;3.85;;;;;;;;;;4979285;28;20041;-62
2023/05/09 15:06:45;;;;;;;6.93;3.58;;;;;;;;;;5012614;28;20061;-62
2023/05/09 15:09:16;;;;;;;7.25;3.80;;;;;;;;;;4965468;28;20049;-62